| time (UTC) | temp C | wind direction | speed KPH | gust KPH | rain 1hr cm | rain 24hr cm | rain mn cm | humidity % | barometer mb |
| 20260902225903 | 26 | 3 | 8.0 | 22.5 | 0.76 | 0.15 | 0.79 | 85 | 1011.1 |
| 20260902224402 | 26 | 326 | 4.8 | 11.3 | 0.56 | 0.23 | 0.58 | 83 | 1011.3 |
| 20260902222902 | 27 | 350 | 6.4 | 14.5 | 0.56 | 0.36 | 0.58 | 79 | 1011.3 |
| 20260902221403 | 32 | 8 | 9.7 | 25.7 | 0.20 | 0.43 | 0.13 | 61 | 1011.9 |
| 20260902215902 | 33 | 148 | 6.4 | 22.5 | 0.00 | 0.66 | 0.03 | 52 | 1011.2 |
| 20260902214403 | 33 | 185 | 8.0 | 29.0 | 0.00 | 0.84 | 0.03 | 52 | 1011.3 |
| 20260902212902 | 33 | 190 | 8.0 | 29.0 | 0.00 | 0.84 | 0.03 | 52 | 1011.2 |
| 20260902212759 | 34 | 135 | 9.7 | 25.7 | 0.00 | 0.84 | 0.03 | 53 | 1011.4 |
| 20260902211634 | 34 | 166 | 8.0 | 20.9 | 0.00 | 0.84 | 0.03 | 53 | 1011.7 |
| 20260902211233 | 35 | 159 | 9.7 | 32.2 | 0.00 | 0.84 | 0.03 | 51 | 1011.7 |
| 20260902202901 | 35 | 155 | 16.1 | 29.0 | 0.00 | 0.84 | 0.03 | 52 | 1011.9 |
| 20260902201400 | 34 | 127 | 11.3 | 29.0 | 0.00 | 0.84 | 0.03 | 53 | 1012.2 |
| 20260902195900 | 34 | 176 | 6.4 | 38.6 | 0.00 | 0.84 | 0.03 | 53 | 1012.0 |
| 20260902194401 | 34 | 147 | 12.9 | 29.0 | 0.00 | 0.84 | 0.03 | 54 | 1012.4 |
| 20260902193555 | 33 | 197 | 6.4 | 25.7 | 0.00 | 0.84 | 0.03 | 54 | 1012.7 |
| 20260902191400 | 33 | 223 | 14.5 | 35.4 | 0.00 | 0.84 | 0.03 | 56 | 1012.8 |
| 20260902185900 | 33 | 195 | 4.8 | 25.7 | 0.00 | 0.84 | 0.03 | 58 | 1012.9 |
| 20260902184358 | 33 | 212 | 6.4 | 32.2 | 0.00 | 0.84 | 0.03 | 58 | 1013.2 |
| 20260902182858 | 33 | 252 | 8.0 | 32.2 | 0.00 | 0.84 | 0.03 | 63 | 1013.5 |
| 20260902181357 | 32 | 144 | 8.0 | 17.7 | 0.00 | 0.84 | 0.03 | 64 | 1013.8 |
| 20260902175855 | 32 | 162 | 6.4 | 20.9 | 0.00 | 0.84 | 0.03 | 67 | 1014.2 |
| 20260902174353 | 31 | 258 | 3.2 | 20.9 | 0.00 | 0.84 | 0.03 | 69 | 1014.5 |
| 20260902173545 | 31 | 276 | 9.7 | 20.9 | 0.00 | 0.84 | 0.03 | 70 | 1014.8 |
| 20260902171349 | 30 | 195 | 8.0 | 22.5 | 0.00 | 0.84 | 0.03 | 71 | 1015.0 |
| 20260902165847 | 30 | 261 | 8.0 | 35.4 | 0.00 | 0.84 | 0.03 | 72 | 1015.3 |
| 20260902164345 | 30 | 290 | 4.8 | 17.7 | 0.00 | 0.84 | 0.03 | 74 | 1015.4 |
| 20260902162844 | 29 | 258 | 6.4 | 25.7 | 0.00 | 0.84 | 0.03 | 75 | 1015.4 |
| 20260902161341 | 29 | 264 | 4.8 | 22.5 | 0.00 | 0.84 | 0.03 | 76 | 1015.5 |
| 20260902155840 | 29 | 168 | 6.4 | 22.5 | 0.00 | 0.84 | 0.03 | 78 | 1015.3 |
| 20260902154337 | 28 | 259 | 9.7 | 38.6 | 0.00 | 0.84 | 0.03 | 79 | 1015.3 |
| 20260902152835 | 28 | 235 | 6.4 | 20.9 | 0.00 | 0.84 | 0.03 | 80 | 1015.3 |
| 20260902152044 | 28 | 275 | 9.7 | 25.7 | 0.00 | 0.84 | 0.03 | 82 | 1015.1 |
| 20260902150534 | 27 | 262 | 4.8 | 20.9 | 0.00 | 0.84 | 0.03 | 83 | 1015.3 |
| 20260902144331 | 27 | 258 | 3.2 | 22.5 | 0.00 | 0.84 | 0.03 | 83 | 1015.2 |
| 20260902143528 | 27 | 265 | 8.0 | 22.5 | 0.00 | 0.84 | 0.03 | 84 | 1015.3 |
| 20260902141331 | 27 | 275 | 3.2 | 25.7 | 0.00 | 0.84 | 0.03 | 84 | 1015.1 |
| 20260902135831 | 27 | 296 | 4.8 | 22.5 | 0.00 | 0.84 | 0.03 | 85 | 1014.9 |
| 20260902134331 | 27 | 251 | 4.8 | 17.7 | 0.00 | 0.84 | 0.03 | 85 | 1015.1 |
| 20260902132831 | 26 | 272 | 4.8 | 17.7 | 0.00 | 0.84 | 0.03 | 85 | 1014.9 |
| 20260902131330 | 26 | 251 | 6.4 | 20.9 | 0.00 | 0.84 | 0.03 | 85 | 1014.8 |
| 20260902125832 | 26 | 268 | 3.2 | 20.9 | 0.00 | 0.84 | 0.03 | 85 | 1014.6 |
| 20260902125042 | 26 | 255 | 4.8 | 20.9 | 0.00 | 0.84 | 0.03 | 85 | 1014.2 |
| 20260902122831 | 26 | 288 | 6.4 | 29.0 | 0.00 | 0.84 | 0.03 | 85 | 1014.0 |
| 20260902121332 | 26 | 188 | 9.7 | 25.7 | 0.00 | 0.84 | 0.03 | 85 | 1013.5 |
| 20260902115831 | 26 | 238 | 8.0 | 25.7 | 0.00 | 0.84 | 0.03 | 85 | 1013.2 |
| 20260902115023 | 27 | 254 | 11.3 | 38.6 | 0.00 | 0.84 | 0.03 | 85 | 1013.1 |
| 20260902112831 | 27 | 269 | 9.7 | 38.6 | 0.00 | 0.84 | 0.03 | 84 | 1012.9 |
| 20260902111329 | 27 | 240 | 9.7 | 32.2 | 0.00 | 0.84 | 0.03 | 84 | 1012.8 |
| 20260902105827 | 27 | 252 | 8.0 | 25.7 | 0.00 | 0.84 | 0.03 | 85 | 1012.9 |
| 20260902104325 | 26 | 231 | 9.7 | 20.9 | 0.00 | 0.84 | 0.03 | 85 | 1012.8 |
| 20260902102823 | 26 | 237 | 6.4 | 20.9 | 0.00 | 0.84 | 0.03 | 85 | 1012.9 |
| 20260902102011 | 26 | 264 | 3.2 | 17.7 | 0.00 | 0.84 | 0.03 | 86 | 1013.0 |
| 20260902095819 | 26 | 247 | 9.7 | 17.7 | 0.03 | 0.81 | 0.03 | 85 | 1013.0 |
| 20260902094318 | 25 | 261 | 3.2 | 17.7 | 0.03 | 0.81 | 0.03 | 84 | 1013.1 |
| 20260902092815 | 25 | 258 | 9.7 | 22.5 | 0.03 | 0.81 | 0.03 | 84 | 1013.2 |
| 20260902091314 | 26 | 251 | 6.4 | 20.9 | 0.03 | 0.81 | 0.03 | 83 | 1013.0 |
| 20260902090506 | 26 | 207 | 4.8 | 20.9 | 0.00 | 0.81 | 0.00 | 82 | 1013.0 |
| 20260902084309 | 26 | 240 | 4.8 | 20.9 | 0.00 | 0.81 | 0.00 | 81 | 1012.9 |
| 20260902082807 | 26 | 247 | 3.2 | 17.7 | 0.00 | 0.81 | 0.00 | 81 | 1013.1 |
| 20260902081305 | 26 | 243 | 6.4 | 17.7 | 0.00 | 0.81 | 0.00 | 80 | 1013.0 |
| 20260902075804 | 26 | 295 | 6.4 | 14.5 | 0.00 | 0.81 | 0.00 | 81 | 1013.1 |
| 20260902075006 | 26 | 254 | 1.6 | 17.7 | 0.00 | 0.81 | 0.00 | 81 | 1013.1 |
| 20260902072805 | 26 | 248 | 8.0 | 17.7 | 0.00 | 0.81 | 0.00 | 82 | 1013.2 |
| 20260902071302 | 26 | 252 | 9.7 | 17.7 | 0.00 | 0.81 | 0.00 | 82 | 1013.3 |
| 20260902065805 | 26 | 247 | 8.0 | 20.9 | 0.00 | 0.81 | 0.00 | 82 | 1013.3 |
| 20260902064302 | 26 | 238 | 3.2 | 22.5 | 0.00 | 0.81 | 0.00 | 83 | 1013.3 |
| 20260902062804 | 25 | 272 | 9.7 | 22.5 | 0.00 | 0.81 | 0.00 | 84 | 1013.2 |
| 20260902061302 | 25 | 259 | 3.2 | 14.5 | 0.00 | 0.81 | 0.00 | 85 | 1013.4 |
| 20260902055803 | 25 | 262 | 8.0 | 20.9 | 0.00 | 0.81 | 0.00 | 85 | 1013.2 |
| 20260902054302 | 25 | 243 | 8.0 | 25.7 | 0.00 | 0.81 | 0.00 | 85 | 1013.0 |
| 20260902052804 | 25 | 259 | 6.4 | 14.5 | 0.00 | 0.81 | 0.00 | 86 | 1012.9 |
| 20260902051302 | 25 | 200 | 3.2 | 20.9 | 0.00 | 0.81 | 0.00 | 86 | 1013.2 |
| 20260902045804 | 25 | 266 | 6.4 | 17.7 | 0.00 | 0.81 | 0.81 | 87 | 1013.1 |
| 20260902045004 | 25 | 272 | 6.4 | 17.7 | 0.00 | 0.81 | 0.81 | 87 | 1013.3 |
| 20260902042758 | 25 | 252 | 3.2 | 17.7 | 0.00 | 0.81 | 0.81 | 87 | 1013.2 |
| 20260902041256 | 25 | 257 | 4.8 | 14.5 | 0.00 | 0.81 | 0.81 | 88 | 1013.1 |
| 20260902035754 | 25 | 250 | 4.8 | 14.5 | 0.00 | 0.81 | 0.81 | 88 | 1013.2 |
| 20260902034252 | 25 | 306 | 1.6 | 4.8 | 0.00 | 0.81 | 0.81 | 88 | 1013.3 |
| 20260902032752 | 25 | 306 | 3.2 | 4.8 | 0.00 | 0.81 | 0.81 | 88 | 1013.3 |
| 20260902031252 | 25 | 307 | 1.6 | 3.2 | 0.00 | 0.81 | 0.81 | 89 | 1013.4 |
| 20260902030448 | 25 | 307 | 0.0 | 3.2 | 0.00 | 0.81 | 0.81 | 88 | 1013.3 |
| 20260902024248 | 25 | 307 | 0.0 | 4.8 | 0.00 | 0.81 | 0.81 | 88 | 1013.1 |
| 20260902023446 | 25 | 307 | 1.6 | 4.8 | 0.00 | 0.81 | 0.81 | 88 | 1012.9 |
| 20260902021245 | 25 | 305 | 0.0 | 3.2 | 0.00 | 0.81 | 0.81 | 88 | 1012.7 |
| 20260902015745 | 25 | 305 | 0.0 | 4.8 | 0.00 | 0.81 | 0.81 | 88 | 1012.5 |
| 20260902014241 | 25 | 305 | 1.6 | 4.8 | 0.00 | 0.81 | 0.81 | 88 | 1012.6 |
| 20260902012741 | 25 | 305 | 1.6 | 4.8 | 0.00 | 0.81 | 0.81 | 88 | 1012.4 |
| 20260902011237 | 25 | 305 | 0.0 | 4.8 | 0.00 | 0.81 | 0.81 | 89 | 1012.4 |
| 20260902005741 | 25 | 305 | 0.0 | 3.2 | 0.00 | 0.81 | 0.81 | 89 | 1012.4 |
| 20260902004235 | 25 | 305 | 0.0 | 3.2 | 0.00 | 0.81 | 0.81 | 89 | 1012.5 |
| 20260902002736 | 25 | 305 | 0.0 | 4.8 | 0.00 | 0.81 | 0.81 | 89 | 1012.6 |
| 20260902001234 | 25 | 305 | 0.0 | 4.8 | 0.03 | 0.81 | 0.81 | 89 | 1012.8 |
| 20260901235736 | 25 | 305 | 1.6 | 3.2 | 0.15 | 0.69 | 0.81 | 89 | 1012.7 |
| 20260901234234 | 25 | 305 | 0.0 | 3.2 | 0.23 | 0.69 | 0.81 | 89 | 1012.6 |
| 20260901233444 | 25 | 305 | 0.0 | 4.8 | 0.36 | 0.69 | 0.81 | 88 | 1012.6 |
| 20260901231233 | 25 | 358 | 3.2 | 4.8 | 0.41 | 0.69 | 0.76 | 88 | 1012.9 |